Time;durP1;ratioP1;P1;durP2;ratioP2;P2;SDS_P1;SDS_P2;PMS_P1;PMS_P2;Temp;Humidity;BMP_temperature;BMP_pressure;BME280_temperature;BME280_humidity;BME280_pressure;Samples;Min_cycle;Max_cycle;Signal;HPM_P1;HPM_P2
2022/03/21 00:02:24;;;;;;;112.07;45.30;;;;;;;-2.60;46.04;101415.12;4050711;86;21606;-83
2022/03/21 00:08:27;;;;;;;100.87;41.87;;;;;;;-2.61;45.21;101411.62;4050729;86;21046;-81
2022/03/21 00:14:28;;;;;;;98.47;39.23;;;;;;;-2.79;45.63;101417.07;4049634;86;21981;-82
2022/03/21 00:20:33;;;;;;;111.53;43.63;;;;;;;-2.87;45.77;101416.05;4046268;86;21039;-81
2022/03/21 00:26:35;;;;;;;100.33;41.63;;;;;;;-2.77;45.86;101402.89;4047530;86;21094;-81
2022/03/21 00:32:38;;;;;;;101.80;40.40;;;;;;;-2.92;46.11;101407.05;4048151;86;21149;-81
2022/03/21 00:38:42;;;;;;;95.53;37.70;;;;;;;-2.85;47.17;101391.70;4049884;86;21062;-80
2022/03/21 00:44:43;;;;;;;99.77;38.73;;;;;;;-3.03;46.72;101395.25;4051189;86;21070;-82
2022/03/21 00:50:46;;;;;;;90.07;35.83;;;;;;;-3.04;47.08;101390.95;4049011;85;21097;-81
2022/03/21 00:56:52;;;;;;;86.93;34.90;;;;;;;-3.06;48.10;101390.35;4049768;86;21091;-81
2022/03/21 01:02:56;;;;;;;92.27;34.67;;;;;;;-3.18;47.15;101394.86;4048825;86;21110;-81
2022/03/21 01:08:59;;;;;;;87.57;33.63;;;;;;;-3.19;48.19;101390.53;4045562;86;21129;-82
2022/03/21 01:15:01;;;;;;;85.57;34.93;;;;;;;-3.12;48.95;101385.91;4045784;86;21555;-81
2022/03/21 01:21:03;;;;;;;95.10;40.20;;;;;;;-3.29;48.19;101387.59;4047182;86;21034;-82
2022/03/21 01:27:08;;;;;;;92.67;38.43;;;;;;;-3.46;47.84;101380.69;4049213;86;21024;-82
2022/03/21 01:33:10;;;;;;;107.83;40.93;;;;;;;-3.54;48.29;101382.34;4046109;86;21922;-82
2022/03/21 01:39:11;;;;;;;109.43;41.67;;;;;;;-3.69;49.07;101381.09;4051031;86;21082;-81
2022/03/21 01:45:17;;;;;;;97.50;41.13;;;;;;;-3.68;49.45;101376.85;4050387;86;21041;-82
2022/03/21 01:52:03;;;;;;;78.43;31.53;;;;;;;-3.51;50.17;101371.17;4043024;86;21122;-82
2022/03/21 01:58:04;;;;;;;95.30;38.37;;;;;;;-3.41;50.78;101373.31;3973647;86;21455;-82
2022/03/21 02:04:06;;;;;;;111.77;44.63;;;;;;;-3.57;49.83;101376.09;4036667;86;22230;-82
2022/03/21 02:17:04;;;;;;;106.47;41.20;;;;;;;-3.92;50.44;101371.59;4051095;86;21024;-81
2022/03/21 02:36:46;;;;;;;105.57;42.10;;;;;;;-4.20;51.11;101381.98;4025552;86;21100;-80
2022/03/21 02:42:54;;;;;;;104.30;42.90;;;;;;;-4.34;51.21;101383.14;4049312;86;21060;-80
2022/03/21 02:48:57;;;;;;;103.03;42.03;;;;;;;-4.38;51.35;101389.95;4041067;86;21037;-82
2022/03/21 02:55:20;;;;;;;101.93;38.47;;;;;;;-4.50;51.95;101392.55;4048976;86;21011;-81
2022/03/21 03:01:30;;;;;;;93.07;39.50;;;;;;;-4.49;52.97;101392.04;4046574;86;21098;-80
2022/03/21 03:07:39;;;;;;;106.90;42.90;;;;;;;-4.36;52.81;101391.39;4044315;86;21070;-81
2022/03/21 03:13:41;;;;;;;91.67;38.73;;;;;;;-4.29;52.67;101394.80;4048955;86;21527;-81
2022/03/21 03:19:42;;;;;;;99.30;43.97;;;;;;;-4.41;53.39;101395.74;4047850;86;21098;-81
2022/03/21 03:25:43;;;;;;;102.37;40.93;;;;;;;-4.47;53.61;101388.60;4048304;86;21038;-79
2022/03/21 03:31:45;;;;;;;109.63;43.87;;;;;;;-4.77;52.84;101397.80;4048900;86;21038;-79
2022/03/21 03:37:47;;;;;;;100.00;39.93;;;;;;;-4.74;53.74;101401.91;4045478;86;21090;-78
2022/03/21 03:43:48;;;;;;;109.50;43.30;;;;;;;-4.78;53.49;101400.69;4044212;86;21014;-78
2022/03/21 03:49:49;;;;;;;108.30;39.03;;;;;;;-4.95;54.38;101395.86;4046629;86;21022;-77
2022/03/21 03:55:51;;;;;;;106.23;43.03;;;;;;;-5.07;53.50;101404.78;4045615;86;21524;-77
2022/03/21 04:01:53;;;;;;;104.73;40.87;;;;;;;-5.22;54.39;101395.75;4047417;86;21314;-78
2022/03/21 04:07:55;;;;;;;105.50;40.57;;;;;;;-5.18;55.00;101397.45;4046829;86;22228;-78
2022/03/21 04:13:56;;;;;;;113.90;43.30;;;;;;;-5.28;54.60;101391.77;4050888;86;22355;-78
2022/03/21 04:19:58;;;;;;;110.70;40.27;;;;;;;-5.21;55.14;101408.56;4046625;86;22068;-79
2022/03/21 04:25:59;;;;;;;109.47;41.93;;;;;;;-5.21;55.27;101398.70;4046912;86;21569;-78
2022/03/21 04:32:01;;;;;;;101.10;42.17;;;;;;;-5.40;55.74;101401.47;4046499;86;21082;-78
2022/03/21 04:38:12;;;;;;;116.23;42.17;;;;;;;-5.21;56.05;101404.55;4047545;86;21565;-78
2022/03/21 04:44:10;;;;;;;113.93;42.97;;;;;;;-5.35;55.62;101398.98;4046885;86;21625;-78
2022/03/21 04:50:13;;;;;;;106.93;42.37;;;;;;;-5.44;55.75;101401.60;4048063;86;21603;-78
2022/03/21 04:56:14;;;;;;;99.50;39.33;;;;;;;-5.68;56.21;101403.14;4048524;86;20954;-78
2022/03/21 05:02:16;;;;;;;102.50;44.53;;;;;;;-5.79;56.44;101406.97;4045527;86;21018;-81
2022/03/21 05:08:18;;;;;;;111.10;45.20;;;;;;;-5.79;56.67;101417.64;4041705;86;21034;-78
2022/03/21 05:14:19;;;;;;;110.63;43.43;;;;;;;-5.79;57.26;101417.13;4048589;86;20951;-78
2022/03/21 05:20:21;;;;;;;101.30;40.77;;;;;;;-5.71;57.73;101415.57;4045384;86;21089;-79
2022/03/21 05:32:42;;;;;;;96.27;40.60;;;;;;;-5.50;57.93;101423.81;4012039;87;21134;-78
2022/03/21 05:38:45;;;;;;;99.07;40.53;;;;;;;-5.27;58.35;101422.27;4012921;87;21071;-79
2022/03/21 05:44:46;;;;;;;101.57;38.40;;;;;;;-4.99;58.59;101434.73;4008547;87;21395;-79
2022/03/21 05:50:48;;;;;;;95.03;40.20;;;;;;;-4.74;59.23;101437.44;4012536;87;21027;-79
2022/03/21 05:56:50;;;;;;;91.87;38.43;;;;;;;-4.41;59.50;101438.02;4007885;87;21733;-80
2022/03/21 06:02:53;;;;;;;89.07;40.47;;;;;;;-4.20;59.67;101442.16;4010338;87;21145;-79
2022/03/21 06:08:57;;;;;;;100.67;44.07;;;;;;;-3.81;59.56;101454.64;4011347;87;21124;-79
2022/03/21 06:14:59;;;;;;;111.63;41.87;;;;;;;-3.04;59.69;101449.91;4011076;87;21091;-80
2022/03/21 06:21:02;;;;;;;92.33;41.07;;;;;;;-2.09;59.23;101443.45;4008759;87;21021;-80
2022/03/21 06:27:04;;;;;;;97.87;42.47;;;;;;;-1.36;57.46;101439.16;4010298;87;21026;-80
2022/03/21 06:33:06;;;;;;;92.37;39.70;;;;;;;-0.74;56.92;101445.47;4009861;87;21085;-80
2022/03/21 06:39:07;;;;;;;91.63;41.67;;;;;;;-0.13;56.63;101444.09;4008892;87;21066;-80
2022/03/21 06:45:09;;;;;;;87.03;41.53;;;;;;;0.47;55.87;101440.11;4013834;87;21076;-81
2022/03/21 06:51:11;;;;;;;87.47;40.58;;;;;;;1.22;55.40;101436.95;4012568;87;21070;-81
2022/03/21 06:57:13;;;;;;;95.92;44.08;;;;;;;2.26;54.67;101441.56;4011092;87;21094;-82
2022/03/21 07:03:16;;;;;;;78.05;38.92;;;;;;;2.26;54.67;101441.56;4009251;87;21038;-81
2022/03/21 07:09:20;;;;;;;83.47;40.33;;;;;;;2.61;54.16;101443.65;4011129;87;21070;-81
2022/03/21 07:15:23;;;;;;;88.10;39.13;;;;;;;2.85;53.17;101438.88;4013295;87;21523;-82
2022/03/21 07:28:34;;;;;;;70.45;38.10;;;;;;;3.37;52.41;101436.03;4014530;87;21019;-81
2022/03/21 07:41:23;;;;;;;88.95;41.68;;;;;;;4.19;51.87;101443.35;4015074;87;21109;-83
2022/03/21 07:48:12;;;;;;;72.70;36.90;;;;;;;4.73;51.28;101446.98;4009834;87;21477;-81
2022/03/21 08:01:39;;;;;;;58.38;30.97;;;;;;;6.00;50.67;101448.65;4007268;87;21110;-83
2022/03/21 08:28:25;;;;;;;65.32;34.88;;;;;;;7.92;46.94;101431.45;4029734;85;21067;-86
2022/03/21 08:35:23;;;;;;;65.52;35.50;;;;;;;8.36;46.33;101424.96;3890482;89;21152;-86
2022/03/21 08:41:54;;;;;;;64.03;33.90;;;;;;;8.57;44.81;101417.98;3921978;89;21093;-84
2022/03/21 09:02:30;;;;;;;47.40;27.90;;;;;;;9.77;41.54;101398.61;4069339;86;21034;-86
2022/03/21 09:08:32;;;;;;;50.90;28.67;;;;;;;10.43;41.36;101402.64;4065377;86;21050;-87
2022/03/21 09:14:33;;;;;;;43.68;26.07;;;;;;;11.37;41.91;101391.30;4064877;86;21521;-87
2022/03/21 09:20:35;;;;;;;48.75;27.95;;;;;;;12.22;41.52;101390.39;4056187;86;21037;-86
2022/03/21 09:26:37;;;;;;;43.60;26.23;;;;;;;12.91;39.92;101386.74;4063764;86;21078;-88
2022/03/21 09:33:02;;;;;;;42.60;24.67;;;;;;;13.43;38.47;101386.64;4055915;86;21718;-87
2022/03/21 09:39:05;;;;;;;37.40;23.87;;;;;;;13.87;36.45;101372.15;4016517;86;21117;-87
2022/03/21 09:45:08;;;;;;;37.48;23.15;;;;;;;14.18;35.14;101374.64;4000719;87;21118;-88
2022/03/21 09:51:10;;;;;;;35.63;21.07;;;;;;;14.33;34.92;101364.12;4012598;87;21081;-88
2022/03/21 09:57:11;;;;;;;35.85;20.27;;;;;;;14.31;33.96;101360.90;4001915;87;21657;-87
2022/03/21 10:03:13;;;;;;;32.53;21.68;;;;;;;14.83;32.66;101356.31;4005824;87;21050;-87
2022/03/21 10:09:19;;;;;;;34.38;20.45;;;;;;;15.30;31.21;101351.84;4009132;87;21023;-87
2022/03/21 10:15:24;;;;;;;25.02;16.42;;;;;;;15.49;30.77;101348.69;4009888;87;21089;-88
2022/03/21 10:21:28;;;;;;;26.57;16.55;;;;;;;15.69;29.91;101331.09;4005302;87;21035;-87
2022/03/21 10:27:43;;;;;;;23.95;15.05;;;;;;;16.07;29.98;101337.44;4009703;87;20998;-87
2022/03/21 10:33:45;;;;;;;19.27;12.85;;;;;;;16.57;27.42;101320.17;4000799;87;21718;-87
2022/03/21 10:39:50;;;;;;;22.77;12.93;;;;;;;16.47;28.21;101316.56;4026550;86;21067;-88
2022/03/21 10:45:54;;;;;;;20.97;12.55;;;;;;;16.55;27.36;101309.44;4046076;86;21070;-87
2022/03/21 10:51:56;;;;;;;21.17;13.62;;;;;;;16.68;26.23;101303.22;4036425;86;20991;-87
2022/03/21 10:57:57;;;;;;;18.17;12.37;;;;;;;16.92;27.29;101295.50;4035437;86;21088;-88
2022/03/21 11:04:03;;;;;;;20.23;12.58;;;;;;;17.37;25.19;101293.45;4031022;86;21093;-88
2022/03/21 11:10:02;;;;;;;16.07;10.38;;;;;;;17.40;26.93;101292.72;4028246;86;22166;-88
2022/03/21 11:16:03;;;;;;;18.45;9.75;;;;;;;17.71;26.10;101285.63;4041193;86;21343;-87
2022/03/21 11:22:06;;;;;;;12.20;8.55;;;;;;;17.81;26.17;101278.12;4044943;86;21032;-88
2022/03/21 11:28:45;;;;;;;12.47;8.25;;;;;;;18.16;23.87;101266.27;4065571;85;20963;-87
2022/03/21 11:35:14;;;;;;;11.15;7.65;;;;;;;17.80;24.59;101260.48;4046828;86;21510;-87
2022/03/21 11:41:21;;;;;;;11.30;6.60;;;;;;;17.47;24.30;101249.18;4016835;86;21050;-87
2022/03/21 11:47:26;;;;;;;9.43;6.70;;;;;;;17.34;23.70;101239.42;4010993;87;21073;-88
2022/03/21 11:53:31;;;;;;;8.48;6.50;;;;;;;17.23;23.58;101235.86;4014515;87;21594;-88
2022/03/21 11:59:39;;;;;;;13.70;6.97;;;;;;;16.77;23.13;101225.02;4014599;87;21189;-88
2022/03/21 12:05:46;;;;;;;10.68;6.47;;;;;;;16.08;23.06;101219.45;4013999;87;21139;-88
2022/03/21 12:11:53;;;;;;;12.95;6.85;;;;;;;15.86;22.50;101209.84;4014507;87;21059;-88
2022/03/21 12:17:54;;;;;;;10.55;7.00;;;;;;;15.57;22.66;101201.98;4015140;87;21045;-88
2022/03/21 12:24:17;;;;;;;11.93;7.28;;;;;;;15.25;23.09;101201.70;4012541;87;21094;-87
2022/03/21 12:30:30;;;;;;;12.28;7.15;;;;;;;15.29;23.28;101192.37;4011758;87;21102;-87
2022/03/21 12:36:33;;;;;;;10.68;7.10;;;;;;;15.08;23.05;101174.44;4014462;87;21105;-86
2022/03/21 12:42:37;;;;;;;13.08;8.03;;;;;;;15.15;23.51;101171.30;4049326;86;21034;-87
2022/03/21 12:48:49;;;;;;;13.08;7.80;;;;;;;14.98;23.30;101166.66;4032536;86;21980;-88
2022/03/21 12:54:50;;;;;;;16.20;7.25;;;;;;;14.86;23.31;101163.38;4047617;86;21059;-87
2022/03/21 13:00:53;;;;;;;12.88;7.33;;;;;;;14.72;23.29;101156.68;4049083;86;21002;-87
2022/03/21 13:13:41;;;;;;;11.12;6.97;;;;;;;14.69;23.03;101135.33;4045037;86;21030;-87
2022/03/21 13:19:42;;;;;;;9.43;6.50;;;;;;;14.73;23.30;101139.78;4042460;86;20995;-86
2022/03/21 13:25:44;;;;;;;13.95;6.58;;;;;;;14.58;23.32;101132.84;4041649;86;21034;-86
2022/03/21 13:31:51;;;;;;;9.98;5.85;;;;;;;14.41;23.15;101123.48;4048438;86;21075;-85
2022/03/21 13:38:02;;;;;;;7.90;5.40;;;;;;;14.41;23.06;101117.98;4040779;86;22038;-87
2022/03/21 13:44:05;;;;;;;8.68;5.83;;;;;;;14.43;22.79;101121.16;4013312;87;21058;-86
2022/03/21 13:50:07;;;;;;;12.60;8.20;;;;;;;14.23;22.47;101115.23;4010469;87;21043;-88
2022/03/21 13:56:08;;;;;;;11.78;5.97;;;;;;;14.12;22.49;101114.92;4010268;87;21051;-88
2022/03/21 14:02:13;;;;;;;12.15;6.08;;;;;;;14.04;22.60;101115.84;4007519;87;21110;-88
2022/03/21 14:08:22;;;;;;;11.63;6.72;;;;;;;13.91;22.44;101113.69;4001909;87;21542;-86
2022/03/21 14:14:23;;;;;;;10.05;6.08;;;;;;;13.73;22.27;101095.80;4002730;87;21144;-86
2022/03/21 14:20:25;;;;;;;9.88;5.72;;;;;;;13.86;22.30;101101.52;4006065;87;21146;-86
2022/03/21 14:26:37;;;;;;;11.95;6.10;;;;;;;13.97;22.47;101097.72;4015240;87;21562;-88
2022/03/21 14:32:38;;;;;;;11.03;6.35;;;;;;;14.10;22.45;101086.91;4012123;87;21062;-87
2022/03/21 14:38:41;;;;;;;9.28;5.78;;;;;;;14.17;22.68;101083.79;4022180;86;21576;-88
2022/03/21 14:44:42;;;;;;;12.65;6.15;;;;;;;14.17;22.19;101075.52;4037768;86;21094;-87
2022/03/21 14:50:43;;;;;;;10.80;6.15;;;;;;;14.06;22.41;101066.73;4028866;86;21511;-87
2022/03/21 14:56:44;;;;;;;11.75;6.12;;;;;;;13.93;22.33;101063.21;4036649;86;21071;-86
2022/03/21 15:02:46;;;;;;;12.70;6.03;;;;;;;13.76;22.66;101064.05;4045032;86;20979;-85
2022/03/21 15:09:11;;;;;;;9.75;6.37;;;;;;;13.62;22.24;101058.09;4047101;86;21065;-86
2022/03/21 15:15:27;;;;;;;10.23;6.00;;;;;;;13.52;22.51;101054.42;4048586;86;21764;-87
2022/03/21 15:21:28;;;;;;;17.57;11.03;;;;;;;13.42;22.44;101058.44;4035076;86;21051;-85
2022/03/21 15:27:30;;;;;;;10.75;6.35;;;;;;;13.27;22.48;101050.07;4014262;86;22218;-87
2022/03/21 15:33:31;;;;;;;9.40;6.62;;;;;;;13.10;22.19;101061.29;4034122;86;21686;-87
2022/03/21 15:45:53;;;;;;;11.97;6.60;;;;;;;12.61;22.76;101052.10;4037907;86;21034;-86
2022/03/21 15:51:54;;;;;;;16.77;9.25;;;;;;;12.42;22.91;101058.11;4045486;86;21921;-86
2022/03/21 15:57:56;;;;;;;15.58;8.73;;;;;;;12.25;22.99;101063.77;4044730;86;21022;-87
2022/03/21 16:03:57;;;;;;;16.80;7.22;;;;;;;12.13;23.08;101062.90;4042553;86;21046;-87
2022/03/21 16:09:59;;;;;;;16.05;7.90;;;;;;;11.94;23.30;101062.00;4040520;86;21049;-87
2022/03/21 16:16:01;;;;;;;17.17;9.10;;;;;;;11.76;23.42;101060.50;4046086;86;21052;-86
2022/03/21 16:22:38;;;;;;;15.38;8.68;;;;;;;11.57;23.56;101062.88;4044203;86;21066;-86
2022/03/21 16:28:53;;;;;;;22.87;12.20;;;;;;;11.35;23.76;101061.78;4044526;86;21077;-86
2022/03/21 16:34:54;;;;;;;21.50;11.45;;;;;;;11.06;24.06;101074.06;4062172;86;21059;-85
2022/03/21 16:41:22;;;;;;;25.40;13.20;;;;;;;10.80;24.46;101067.87;4049049;86;21043;-85
2022/03/21 16:47:45;;;;;;;20.55;12.73;;;;;;;10.55;24.72;101065.98;3975202;87;21142;-86
2022/03/21 17:01:17;;;;;;;32.65;15.98;;;;;;;10.09;25.34;101059.82;3988539;87;21089;-85
2022/03/21 17:07:32;;;;;;;42.05;19.07;;;;;;;9.84;25.73;101065.23;3980398;87;21097;-86
2022/03/21 17:13:46;;;;;;;39.90;16.80;;;;;;;9.63;25.97;101065.62;3981786;87;21077;-86
2022/03/21 17:26:38;;;;;;;28.77;15.78;;;;;;;9.22;26.57;101075.55;3982786;87;21064;-86
2022/03/21 17:33:09;;;;;;;29.45;16.52;;;;;;;9.00;26.97;101076.42;4048898;86;21026;-86
2022/03/21 17:39:19;;;;;;;32.00;17.15;;;;;;;8.84;27.24;101077.13;4022351;86;21615;-85
2022/03/21 17:45:48;;;;;;;31.05;15.98;;;;;;;8.68;27.41;101084.91;4035594;86;21002;-86
2022/03/21 17:51:52;;;;;;;60.98;32.50;;;;;;;8.52;27.67;101080.94;4050491;86;21062;-86
2022/03/21 17:58:15;;;;;;;80.00;37.25;;;;;;;8.36;27.88;101073.45;4049038;86;21170;-86
2022/03/21 18:04:20;;;;;;;41.05;21.05;;;;;;;8.20;28.07;101074.34;4037549;86;21087;-86
2022/03/21 18:10:23;;;;;;;38.17;19.10;;;;;;;8.03;28.19;101084.30;4040194;86;21042;-86
2022/03/21 18:16:47;;;;;;;33.75;18.05;;;;;;;7.83;28.39;101087.73;4042555;86;21019;-85
2022/03/21 18:23:40;;;;;;;48.17;25.57;;;;;;;7.58;28.65;101097.81;4002006;87;21405;-86
2022/03/21 18:29:41;;;;;;;39.63;21.30;;;;;;;7.33;28.92;101103.78;4005526;87;21043;-86
2022/03/21 18:49:46;;;;;;;88.55;42.20;;;;;;;6.35;30.17;101115.08;3987572;87;21054;-85
2022/03/21 18:55:49;;;;;;;240.12;107.90;;;;;;;5.96;30.71;101111.03;3994094;87;21082;-85
2022/03/21 19:08:30;;;;;;;82.25;40.35;;;;;;;5.35;31.39;101119.67;3867938;90;21069;-84
2022/03/21 19:14:51;;;;;;;81.30;41.68;;;;;;;4.91;31.76;101121.77;3828274;91;21104;-85
2022/03/21 19:21:10;;;;;;;82.57;40.95;;;;;;;4.46;32.33;101125.13;3815903;92;21127;-85
2022/03/21 19:27:12;;;;;;;89.52;46.90;;;;;;;3.99;32.81;101133.08;3746019;93;61851;-85
2022/03/21 19:33:24;;;;;;;89.15;40.20;;;;;;;3.68;33.24;101134.86;3813385;92;21570;-85
2022/03/21 19:39:25;;;;;;;85.38;42.60;;;;;;;3.46;33.74;101149.30;3786426;90;21095;-86
2022/03/21 19:59:55;;;;;;;150.90;65.17;;;;;;;2.78;35.24;101161.61;3850048;89;21106;-84
2022/03/21 20:12:48;;;;;;;118.72;48.48;;;;;;;2.31;35.70;101157.81;3822857;89;21663;-85
2022/03/21 20:25:36;;;;;;;113.85;49.27;;;;;;;1.81;36.59;101159.57;3949358;88;21593;-84
2022/03/21 20:32:09;;;;;;;102.80;46.85;;;;;;;1.75;36.99;101153.89;4041971;86;21083;-84
2022/03/21 20:45:26;;;;;;;112.52;52.33;;;;;;;1.38;37.77;101166.95;4070007;86;21000;-84
2022/03/21 20:51:30;;;;;;;95.60;46.35;;;;;;;1.27;37.91;101163.92;4068979;86;21644;-84
2022/03/21 20:57:49;;;;;;;90.85;41.83;;;;;;;1.12;38.14;101165.20;4068671;86;21058;-85
2022/03/21 21:03:57;;;;;;;96.82;45.58;;;;;;;0.88;38.66;101173.91;4068975;86;21088;-83
2022/03/21 21:16:47;;;;;;;112.55;47.55;;;;;;;0.63;39.32;101171.02;4076108;86;21050;-84
2022/03/21 21:22:58;;;;;;;101.22;45.78;;;;;;;0.37;39.63;101171.34;4068386;86;21123;-84
2022/03/21 21:28:59;;;;;;;97.47;45.03;;;;;;;0.43;42.24;101166.28;4067835;86;21147;-84
2022/03/21 21:35:02;;;;;;;107.97;48.63;;;;;;;0.36;42.00;101152.75;4069906;86;21070;-82
2022/03/21 21:41:13;;;;;;;106.83;47.85;;;;;;;0.36;42.00;101152.75;4066813;84;22441;-84
2022/03/21 21:47:14;;;;;;;109.05;51.45;;;;;;;0.33;41.32;101166.73;3954887;88;21123;-84
2022/03/21 21:53:32;;;;;;;119.90;52.27;;;;;;;0.28;42.05;101162.11;3952269;88;21110;-84
2022/03/21 21:59:33;;;;;;;124.67;53.02;;;;;;;0.30;42.91;101155.13;4037729;86;21084;-84
2022/03/21 22:05:34;;;;;;;147.53;56.28;;;;;;;0.29;42.38;101151.60;4038078;86;21656;-84
2022/03/21 22:11:47;;;;;;;159.83;61.20;;;;;;;0.11;42.24;101150.60;4035122;86;21585;-83
2022/03/21 22:24:45;;;;;;;99.33;41.20;;;;;;;-0.05;43.13;101150.98;4037915;86;21105;-83
2022/03/21 22:31:12;;;;;;;88.33;40.63;;;;;;;-0.13;43.53;101151.46;4041123;86;21053;-84
2022/03/21 22:37:14;;;;;;;95.03;41.00;;;;;;;-0.27;43.40;101143.47;3938556;89;21021;-84
2022/03/21 22:49:59;;;;;;;82.87;36.57;;;;;;;-0.52;43.85;101143.72;3955440;88;21090;-84
2022/03/21 22:56:03;;;;;;;113.27;47.70;;;;;;;-0.63;44.78;101150.04;3953263;88;21078;-84
2022/03/21 23:02:07;;;;;;;103.40;45.60;;;;;;;-0.75;45.30;101149.34;3945098;89;21046;-84
2022/03/21 23:08:14;;;;;;;173.13;60.20;;;;;;;-0.77;45.37;101154.16;3996084;87;22133;-84
2022/03/21 23:14:35;;;;;;;105.00;43.60;;;;;;;-0.68;46.51;101157.52;3999269;88;21104;-84
2022/03/21 23:20:39;;;;;;;;;;;;;;;-0.82;45.71;101151.39;4001694;88;22046;-84
2022/03/21 23:26:41;;;;;;;126.50;50.00;;;;;;;-1.01;48.38;101150.86;4002372;87;20155;-84
2022/03/21 23:32:42;;;;;;;152.17;60.37;;;;;;;-1.10;47.41;101155.04;3991485;88;21079;-83
2022/03/21 23:38:44;;;;;;;143.80;54.03;;;;;;;-1.14;47.67;101147.17;3999418;87;21473;-83
2022/03/21 23:44:45;;;;;;;131.80;54.63;;;;;;;-1.18;47.50;101150.59;3994514;87;21128;-83
2022/03/21 23:50:49;;;;;;;104.27;44.53;;;;;;;-1.27;47.16;101152.08;3984844;87;21052;-83
2022/03/21 23:56:53;;;;;;;121.13;48.13;;;;;;;-1.37;48.42;101145.19;4000564;87;21080;-82
